Portada
METAR-TAF:

METAR-TAF

Aeroports :

Omsk, Rússia

latitud: 54-58N, longitud: 073-18E, altitud: 122 m

Observació

L'informe es va fer fa 11 minuts, a les 05:30 UTC
Vent 6 kt del Sud-Oest
Temperatura -9°C
Humitat 85%
Pressió 1027 hPa
Visibilitat 10 km o més
Cel ennuvolat a una alçada de 3000 ft, Cumulonimbus.

METAR: UNOO 280530Z 23003MPS 9999 BKN030CB M09/M11 Q1027 R25/390134 NOSIG RMK QFE762

Hora: 11:41 (05:41 UTC)

Pronòstic

L'informe es va fer fa 46 minuts, a les 04:55 UTC
Pronòstic vàlid del 28 a les 06 UTC al 29 a les 06 UTC
Vent 8 kt del Sud-Oest amb ràfegues de 21 kt
Visibilitat: 8000 m
Cel ennuvolat a una alçada de 1100 ft
Cel ennuvolat a una alçada de 3000 ft, Cumulonimbus.
Evolucionant progressivament
l' 28 a les 11 UTC al 28 a les 13 UTC
Vent 16 kt del Oest/Sud-Oest amb ràfegues de 31 kt

TAF: UNOO 280455Z 2806/2906 23004G11MPS 8000 BKN011 BKN030CB BECMG 2811/2813 24008G16MPS

Observacions i pronòstics meteorològics de més de 4000 aeroports (METAR i TAF).

Les estacions disponibles són els punts grocs i vermells al mapa.

Posi el ratolí al punt desitjat per veure el nom de l'estació.

Feu clic per veure les observacions i els pronòstics meteorològics.

Per canviar el mapa: feu clic els botons verds amb una creu de color negre per apropar; al botó verd amb un guió per allunyar la imatge; o en les fletxes verdes per a mapes adjacents.


METAR-TAF: